Time;durP1;ratioP1;P1;durP2;ratioP2;P2;SDS_P1;SDS_P2;PMS_P1;PMS_P2;Temp;Humidity;BMP_temperature;BMP_pressure;BME280_temperature;BME280_humidity;BME280_pressure;Samples;Min_cycle;Max_cycle;Signal;HPM_P1;HPM_P2
2022/03/08 00:01:00;;;;;;;27.87;14.93;;;-0.70;1.00;;;;;;5093099;28;20656;-72
2022/03/08 00:03:27;;;;;;;28.33;14.60;;;-0.60;1.00;;;;;;5093786;28;20532;-72
2022/03/08 00:05:56;;;;;;;28.63;14.33;;;-0.70;1.00;;;;;;5093136;28;20221;-72
2022/03/08 00:08:23;;;;;;;29.03;15.07;;;-0.90;1.00;;;;;;5105703;28;20647;-72
2022/03/08 00:10:50;;;;;;;25.83;13.87;;;-1.00;1.00;;;;;;5096195;28;20206;-72
2022/03/08 00:13:17;;;;;;;25.93;14.90;;;-1.10;1.00;;;;;;5093823;28;20221;-72
2022/03/08 00:15:44;;;;;;;26.33;14.00;;;-1.00;1.00;;;;;;5093236;28;20569;-72
2022/03/08 00:18:11;;;;;;;27.57;13.77;;;-1.00;1.00;;;;;;5101690;28;20541;-72
2022/03/08 00:20:38;;;;;;;27.57;13.70;;;-1.10;1.00;;;;;;5103083;28;20647;-72
2022/03/08 00:23:06;;;;;;;26.77;15.30;;;-1.10;1.00;;;;;;5093219;28;20197;-73
2022/03/08 00:25:33;;;;;;;26.90;13.87;;;-0.90;1.00;;;;;;5092972;28;20564;-72
2022/03/08 00:28:00;;;;;;;27.57;14.60;;;-0.90;1.00;;;;;;5094486;28;20610;-73
2022/03/08 00:30:29;;;;;;;28.27;14.83;;;-1.00;1.00;;;;;;5092017;28;20204;-73
2022/03/08 00:32:56;;;;;;;26.30;14.83;;;-1.20;1.00;;;;;;5093227;28;20311;-72
2022/03/08 00:35:24;;;;;;;26.40;14.00;;;-1.10;94.50;;;;;;5093572;28;20219;-72
2022/03/08 00:37:52;;;;;;;24.83;12.80;;;-1.20;99.90;;;;;;5103535;28;20209;-72
2022/03/08 00:40:22;;;;;;;24.37;13.03;;;-1.50;52.40;;;;;;5099874;28;20200;-72
2022/03/08 00:42:49;;;;;;;26.07;14.67;;;-1.50;99.90;;;;;;5093349;28;20209;-72
2022/03/08 00:45:16;;;;;;;26.50;15.00;;;-1.20;99.90;;;;;;5092203;28;20644;-72
2022/03/08 00:47:44;;;;;;;29.17;15.33;;;-1.00;1.00;;;;;;5099589;28;20205;-72
2022/03/08 00:50:13;;;;;;;29.67;15.50;;;-1.00;1.00;;;;;;5093197;28;20208;-72
2022/03/08 00:52:41;;;;;;;30.03;15.90;;;-0.90;1.00;;;;;;5092489;28;20222;-73
2022/03/08 00:55:13;;;;;;;30.60;15.37;;;-1.00;1.00;;;;;;5094360;28;20608;-72
2022/03/08 00:57:41;;;;;;;29.70;15.53;;;-1.10;1.00;;;;;;5098416;28;20224;-70
2022/03/08 01:00:12;;;;;;;28.13;15.47;;;-1.30;99.90;;;;;;5091001;28;20705;-69
2022/03/08 01:02:39;;;;;;;31.00;16.67;;;-1.40;99.90;;;;;;5088921;28;20624;-70
2022/03/08 01:05:07;;;;;;;30.20;16.03;;;-1.50;99.90;;;;;;5090215;28;20718;-70
2022/03/08 01:07:34;;;;;;;28.63;15.90;;;-1.60;99.90;;;;;;5090394;28;20237;-70
2022/03/08 01:10:01;;;;;;;26.87;15.33;;;-1.50;99.90;;;;;;5090859;28;20251;-70
2022/03/08 01:12:28;;;;;;;30.27;15.70;;;-1.60;99.90;;;;;;5089941;28;20221;-70
2022/03/08 01:14:57;;;;;;;30.13;15.93;;;-1.40;1.00;;;;;;5090867;28;20194;-70
2022/03/08 01:17:25;;;;;;;28.50;15.17;;;-1.30;1.00;;;;;;5089735;28;20193;-70
2022/03/08 01:19:52;;;;;;;29.27;15.27;;;-1.10;1.00;;;;;;5089966;28;20205;-69
2022/03/08 01:22:18;;;;;;;29.37;15.73;;;-1.20;1.00;;;;;;5090777;28;20197;-70
2022/03/08 01:24:46;;;;;;;33.07;16.30;;;-1.20;1.00;;;;;;5091374;28;20217;-70
2022/03/08 01:27:13;;;;;;;26.87;14.60;;;-1.10;1.00;;;;;;5094084;28;20236;-70
2022/03/08 01:29:40;;;;;;;26.33;14.83;;;-1.30;1.00;;;;;;5089711;28;20561;-70
2022/03/08 01:32:09;;;;;;;28.43;14.73;;;-1.40;99.90;;;;;;5094536;28;20259;-70
2022/03/08 01:34:36;;;;;;;28.13;14.03;;;-1.60;99.90;;;;;;5092867;28;20197;-70
2022/03/08 01:37:04;;;;;;;28.17;15.20;;;-1.80;99.90;;;;;;5103575;28;20247;-70
2022/03/08 01:39:32;;;;;;;26.63;14.80;;;-1.80;81.10;;;;;;5090412;28;20243;-70
2022/03/08 01:41:59;;;;;;;28.27;14.57;;;-1.90;45.50;;;;;;5091149;28;20252;-70
2022/03/08 01:44:26;;;;;;;26.17;13.63;;;-1.80;99.90;;;;;;5101178;28;20208;-70
2022/03/08 01:46:53;;;;;;;31.07;14.30;;;-1.80;99.90;;;;;;5089547;28;20198;-70
2022/03/08 01:49:21;;;;;;;27.90;14.97;;;-1.80;99.90;;;;;;5100777;28;20664;-70
2022/03/08 01:51:48;;;;;;;27.80;14.67;;;-1.70;99.90;;;;;;5090138;28;20267;-70
2022/03/08 01:54:15;;;;;;;27.13;14.67;;;-1.60;1.00;;;;;;5101661;28;20221;-70
2022/03/08 01:56:44;;;;;;;29.73;15.70;;;-1.70;99.90;;;;;;5090523;28;20246;-72
2022/03/08 01:59:11;;;;;;;29.07;15.67;;;-1.60;99.90;;;;;;5089021;28;20267;-72
2022/03/08 02:01:38;;;;;;;29.57;15.70;;;-1.40;99.90;;;;;;5090336;28;20255;-72
2022/03/08 02:04:05;;;;;;;26.97;14.40;;;-1.30;1.00;;;;;;5089810;28;20201;-72
2022/03/08 02:06:33;;;;;;;28.63;14.60;;;-1.50;99.90;;;;;;5089417;28;20205;-72
2022/03/08 02:09:01;;;;;;;26.80;13.70;;;-1.70;23.00;;;;;;5091096;28;20275;-73
2022/03/08 02:11:30;;;;;;;26.50;14.23;;;-1.90;1.00;;;;;;5090113;28;20205;-72
2022/03/08 02:13:57;;;;;;;31.47;15.33;;;-1.80;13.80;;;;;;5091168;28;20234;-72
2022/03/08 02:16:24;;;;;;;27.33;14.43;;;-1.70;99.90;;;;;;5092040;28;20288;-72
2022/03/08 02:18:51;;;;;;;30.73;15.87;;;-1.70;99.90;;;;;;5090650;28;20197;-72
2022/03/08 02:21:19;;;;;;;28.77;15.30;;;-1.70;43.40;;;;;;5105203;28;20250;-72
2022/03/08 02:23:47;;;;;;;30.23;15.17;;;-1.60;99.90;;;;;;5099384;28;20262;-72
2022/03/08 02:26:14;;;;;;;28.63;14.50;;;-1.60;99.90;;;;;;5110634;28;20213;-72
2022/03/08 02:28:42;;;;;;;30.47;15.27;;;-1.50;99.90;;;;;;5088856;28;20647;-72
2022/03/08 02:31:09;;;;;;;27.43;15.23;;;-1.50;99.90;;;;;;5089129;28;20201;-72
2022/03/08 02:33:36;;;;;;;27.10;14.77;;;-1.60;16.10;;;;;;5079992;28;20222;-72
2022/03/08 02:36:06;;;;;;;26.00;13.73;;;-1.60;1.00;;;;;;5085926;28;20205;-72
2022/03/08 02:38:34;;;;;;;28.80;14.93;;;-1.70;1.00;;;;;;5074071;28;20205;-73
2022/03/08 02:41:01;;;;;;;26.30;13.57;;;-1.90;1.00;;;;;;5083968;28;20198;-72
2022/03/08 02:43:28;;;;;;;28.30;15.40;;;-2.00;1.00;;;;;;5090349;28;20214;-72
2022/03/08 02:45:55;;;;;;;30.77;14.97;;;-2.00;1.00;;;;;;5090376;28;20560;-72
2022/03/08 02:48:26;;;;;;;26.13;14.00;;;-2.00;1.00;;;;;;5093178;28;20240;-72
2022/03/08 02:50:54;;;;;;;26.70;14.13;;;-1.90;1.00;;;;;;5088893;28;20198;-72
2022/03/08 02:53:21;;;;;;;26.60;13.60;;;-1.80;1.00;;;;;;5096420;28;20229;-72
2022/03/08 02:55:50;;;;;;;29.03;15.37;;;-1.80;1.00;;;;;;5089488;28;20236;-72
2022/03/08 02:58:18;;;;;;;31.20;15.10;;;-1.80;1.00;;;;;;5070555;28;20205;-72
2022/03/08 03:00:45;;;;;;;28.17;14.97;;;-2.10;1.00;;;;;;5089114;28;20202;-73
2022/03/08 03:03:13;;;;;;;28.47;14.40;;;-2.00;1.00;;;;;;5089624;28;20277;-72
2022/03/08 03:05:40;;;;;;;25.97;13.17;;;-2.10;1.00;;;;;;5092184;28;20652;-72
2022/03/08 03:08:07;;;;;;;29.90;15.43;;;-2.30;99.90;;;;;;5092344;28;20244;-72
2022/03/08 03:10:35;;;;;;;25.47;13.43;;;-2.10;1.00;;;;;;5092205;28;20198;-72
2022/03/08 03:13:04;;;;;;;28.33;14.57;;;-2.30;1.00;;;;;;5093198;28;20239;-72
2022/03/08 03:15:31;;;;;;;27.07;13.70;;;-2.40;1.00;;;;;;5092759;28;20588;-72
2022/03/08 03:17:59;;;;;;;31.67;16.43;;;-2.40;1.00;;;;;;5094306;28;20271;-72
2022/03/08 03:20:28;;;;;;;26.87;13.93;;;-2.10;28.80;;;;;;5094347;28;20202;-72
2022/03/08 03:22:55;;;;;;;31.77;13.93;;;-2.20;1.00;;;;;;5098153;28;20234;-72
2022/03/08 03:25:22;;;;;;;27.93;13.93;;;-2.30;1.00;;;;;;5100227;28;20587;-72
2022/03/08 03:27:49;;;;;;;25.33;13.03;;;-2.30;99.90;;;;;;5093825;28;20209;-72
2022/03/08 03:30:19;;;;;;;25.80;13.27;;;-2.40;25.40;;;;;;5093114;28;20259;-72
2022/03/08 03:32:47;;;;;;;26.27;13.73;;;-2.40;99.90;;;;;;5096551;28;20204;-72
2022/03/08 03:35:15;;;;;;;26.10;14.37;;;-2.40;99.90;;;;;;5093757;28;20247;-72
2022/03/08 03:37:42;;;;;;;27.23;13.70;;;-2.50;99.90;;;;;;5092621;28;20640;-72
2022/03/08 03:40:10;;;;;;;27.83;14.67;;;-2.60;56.80;;;;;;5093532;28;20194;-72
2022/03/08 03:42:38;;;;;;;28.53;13.53;;;-2.50;99.90;;;;;;5093249;28;20210;-72
2022/03/08 03:45:06;;;;;;;25.73;13.37;;;-2.50;99.90;;;;;;5092525;28;20259;-72
2022/03/08 03:47:35;;;;;;;25.20;14.07;;;-2.40;99.90;;;;;;5091861;28;20251;-72
2022/03/08 03:50:04;;;;;;;28.30;14.47;;;-2.30;99.90;;;;;;5111578;28;20201;-72
2022/03/08 03:52:31;;;;;;;27.00;13.80;;;-2.20;99.90;;;;;;5093075;28;20205;-72
2022/03/08 03:54:58;;;;;;;26.00;13.70;;;-2.30;99.90;;;;;;5092327;28;20617;-73
2022/03/08 03:57:25;;;;;;;24.10;12.83;;;-2.40;99.90;;;;;;5100375;28;20197;-73
2022/03/08 03:59:52;;;;;;;26.03;13.60;;;-2.40;99.90;;;;;;5111147;28;20193;-72
2022/03/08 04:02:19;;;;;;;41.37;21.23;;;-2.40;6.10;;;;;;5097351;28;20211;-72
2022/03/08 04:04:47;;;;;;;33.20;18.17;;;-2.30;99.90;;;;;;5113078;28;20246;-72
2022/03/08 04:07:14;;;;;;;27.80;14.07;;;-2.30;99.90;;;;;;5096275;28;20281;-72
2022/03/08 04:09:41;;;;;;;25.67;13.50;;;-2.40;99.90;;;;;;5091902;28;20628;-72
2022/03/08 04:12:09;;;;;;;23.73;13.00;;;-2.30;1.00;;;;;;5092634;28;20201;-72
2022/03/08 04:14:36;;;;;;;25.00;13.40;;;-2.50;1.00;;;;;;5091719;28;20225;-73
2022/03/08 04:17:04;;;;;;;25.33;13.37;;;-2.60;1.00;;;;;;5092302;28;20925;-73
2022/03/08 04:19:31;;;;;;;26.53;13.53;;;-2.50;1.00;;;;;;5093419;28;20209;-72
2022/03/08 04:21:59;;;;;;;26.93;13.93;;;-2.50;1.00;;;;;;5092147;28;20250;-72
2022/03/08 04:24:27;;;;;;;27.33;13.27;;;-2.60;1.00;;;;;;5094242;28;20202;-71
2022/03/08 04:26:54;;;;;;;26.13;14.63;;;-2.70;1.00;;;;;;5093859;28;20206;-71
2022/03/08 04:29:21;;;;;;;29.57;13.97;;;-2.70;1.00;;;;;;5092648;28;20201;-72
2022/03/08 04:31:48;;;;;;;24.33;12.70;;;-2.60;1.00;;;;;;5093274;28;20263;-72
2022/03/08 04:34:15;;;;;;;24.73;12.27;;;-2.30;1.00;;;;;;5093409;28;20267;-72
2022/03/08 04:36:43;;;;;;;28.57;13.23;;;-2.20;1.00;;;;;;5091622;28;20229;-72
2022/03/08 04:39:11;;;;;;;24.33;13.40;;;-2.40;1.00;;;;;;5093376;28;20201;-72
2022/03/08 04:41:38;;;;;;;24.97;12.53;;;-2.40;1.00;;;;;;5093290;28;20202;-72
2022/03/08 04:44:06;;;;;;;24.17;12.50;;;-2.30;1.00;;;;;;5092184;28;20201;-72
2022/03/08 04:46:35;;;;;;;23.20;13.30;;;-2.50;1.00;;;;;;5091956;28;20201;-72
2022/03/08 04:49:02;;;;;;;24.63;12.70;;;-2.50;1.00;;;;;;5092819;28;20241;-72
2022/03/08 04:51:29;;;;;;;25.47;12.47;;;-2.40;1.00;;;;;;5093007;28;20201;-72
2022/03/08 04:53:56;;;;;;;26.67;12.77;;;-2.60;1.00;;;;;;5092943;28;20225;-72
2022/03/08 04:56:24;;;;;;;23.43;11.77;;;-2.70;1.00;;;;;;5092918;28;20248;-72
2022/03/08 04:58:52;;;;;;;26.47;12.53;;;-2.80;1.00;;;;;;5090728;28;20545;-73
2022/03/08 05:01:19;;;;;;;24.27;11.33;;;-2.70;1.00;;;;;;5092689;28;20292;-72
2022/03/08 05:03:46;;;;;;;23.23;12.37;;;-2.60;1.00;;;;;;5092499;28;20198;-72
2022/03/08 05:06:13;;;;;;;24.60;12.37;;;-2.60;1.00;;;;;;5092853;28;20210;-72
2022/03/08 05:08:40;;;;;;;24.47;12.63;;;-2.60;1.00;;;;;;5092665;28;20298;-72
2022/03/08 05:11:07;;;;;;;23.70;12.73;;;-2.50;1.00;;;;;;5092782;28;20194;-72
2022/03/08 05:13:37;;;;;;;24.23;12.73;;;-2.60;1.00;;;;;;5091982;28;20205;-72
2022/03/08 05:16:05;;;;;;;21.83;11.23;;;-2.70;1.00;;;;;;5091468;28;20632;-72
2022/03/08 05:18:32;;;;;;;25.73;12.73;;;-2.80;1.00;;;;;;5090446;28;20205;-72
2022/03/08 05:20:59;;;;;;;22.10;11.80;;;-2.60;1.00;;;;;;5090622;28;20206;-70
2022/03/08 05:23:26;;;;;;;21.63;11.90;;;-2.60;1.00;;;;;;5092120;28;20202;-70
2022/03/08 05:25:53;;;;;;;24.37;11.73;;;-2.60;1.00;;;;;;5091466;28;20212;-70
2022/03/08 05:28:20;;;;;;;22.43;12.17;;;-2.70;1.00;;;;;;5090961;28;20664;-69
2022/03/08 05:30:50;;;;;;;29.40;13.27;;;-2.70;1.00;;;;;;5090202;28;20668;-70
2022/03/08 05:33:17;;;;;;;25.33;12.30;;;-2.60;1.00;;;;;;5106078;28;20250;-70
2022/03/08 05:35:44;;;;;;;24.73;14.03;;;-2.50;1.00;;;;;;5111621;28;20267;-69
2022/03/08 05:38:11;;;;;;;22.13;12.13;;;-2.50;1.00;;;;;;5109778;28;20262;-70
2022/03/08 05:40:39;;;;;;;24.73;12.27;;;-2.60;1.00;;;;;;5112373;28;20196;-70
2022/03/08 05:43:06;;;;;;;23.07;11.90;;;-2.70;1.00;;;;;;5111365;28;20209;-70
2022/03/08 05:45:33;;;;;;;22.00;11.53;;;-2.90;99.90;;;;;;5112127;28;20196;-70
2022/03/08 05:48:02;;;;;;;28.23;12.37;;;-2.80;99.90;;;;;;5110647;28;20723;-70
2022/03/08 05:50:29;;;;;;;23.97;12.63;;;-2.70;99.90;;;;;;5111108;28;20200;-70
2022/03/08 05:52:56;;;;;;;22.93;12.37;;;-2.70;99.90;;;;;;5111309;28;20258;-70
2022/03/08 05:55:23;;;;;;;24.87;12.00;;;-2.70;99.90;;;;;;5111332;28;20250;-70
2022/03/08 05:57:50;;;;;;;22.70;12.03;;;-2.80;99.90;;;;;;5111080;28;20266;-70
2022/03/08 06:00:17;;;;;;;22.93;11.77;;;-2.80;99.90;;;;;;5111327;28;20223;-70
2022/03/08 06:02:44;;;;;;;25.07;11.07;;;-2.60;99.90;;;;;;5112245;28;20200;-70
2022/03/08 06:05:12;;;;;;;25.20;12.50;;;-2.80;99.90;;;;;;5112418;28;20483;-70
2022/03/08 06:07:40;;;;;;;24.27;12.97;;;-2.60;99.90;;;;;;5111796;28;20709;-69
2022/03/08 06:10:09;;;;;;;25.40;11.97;;;-2.70;99.90;;;;;;5110835;28;20249;-70
2022/03/08 06:12:36;;;;;;;21.63;11.83;;;-2.80;99.90;;;;;;5106480;28;20231;-69
2022/03/08 06:15:04;;;;;;;21.00;10.93;;;-2.90;99.90;;;;;;5108093;28;20220;-70
2022/03/08 06:17:31;;;;;;;24.43;12.37;;;-2.60;1.00;;;;;;5094724;28;20252;-70
2022/03/08 06:19:58;;;;;;;22.87;12.57;;;-2.30;1.00;;;;;;5091987;28;20255;-70
2022/03/08 06:22:27;;;;;;;23.37;12.23;;;-2.50;1.00;;;;;;5091738;28;20617;-70
2022/03/08 06:24:54;;;;;;;24.20;11.53;;;-2.50;1.00;;;;;;5089654;28;20701;-70
2022/03/08 06:27:21;;;;;;;23.27;10.93;;;-2.30;1.00;;;;;;5082560;28;20199;-70
2022/03/08 06:29:48;;;;;;;23.57;10.97;;;-2.30;1.00;;;;;;5089813;28;20238;-70
2022/03/08 06:32:15;;;;;;;22.00;11.63;;;-2.30;1.00;;;;;;5095814;28;20207;-70
2022/03/08 06:34:42;;;;;;;24.17;11.57;;;-2.40;99.90;;;;;;5111505;28;20225;-70
2022/03/08 06:37:09;;;;;;;24.37;11.83;;;-2.40;99.90;;;;;;5111447;28;20259;-70
2022/03/08 06:39:37;;;;;;;23.97;12.07;;;-2.30;99.90;;;;;;5112787;28;20247;-70
2022/03/08 06:42:05;;;;;;;21.07;11.57;;;-2.20;99.90;;;;;;5114842;28;20290;-70
2022/03/08 06:44:32;;;;;;;22.97;11.93;;;-2.10;99.90;;;;;;5115309;28;20709;-70
2022/03/08 06:46:59;;;;;;;23.83;12.70;;;-2.10;99.90;;;;;;5113824;28;20271;-70
2022/03/08 06:49:26;;;;;;;23.27;12.27;;;-1.90;99.90;;;;;;5115448;28;20201;-70
2022/03/08 06:51:53;;;;;;;22.17;11.77;;;-1.90;99.90;;;;;;5115028;28;20258;-70
2022/03/08 06:54:20;;;;;;;23.37;12.13;;;-1.90;99.90;;;;;;5114922;28;20209;-70
2022/03/08 06:56:49;;;;;;;23.37;12.73;;;-1.80;99.90;;;;;;5114861;28;20201;-70
2022/03/08 06:59:16;;;;;;;24.43;12.83;;;-1.70;99.90;;;;;;5114379;28;20229;-70
2022/03/08 07:01:43;;;;;;;24.30;12.33;;;-1.50;99.90;;;;;;5114161;28;20602;-70
2022/03/08 07:04:10;;;;;;;26.57;12.47;;;-1.40;99.90;;;;;;5115272;28;20655;-70
2022/03/08 07:06:37;;;;;;;24.10;12.70;;;-1.20;99.90;;;;;;5114060;28;20257;-70
2022/03/08 07:09:04;;;;;;;22.93;12.13;;;-1.10;99.90;;;;;;5114720;28;20651;-70
2022/03/08 07:11:33;;;;;;;24.93;13.73;;;-0.80;99.90;;;;;;5114277;28;20217;-70
2022/03/08 07:14:01;;;;;;;22.27;12.13;;;-0.60;58.50;;;;;;5115048;28;20204;-70
2022/03/08 07:16:28;;;;;;;24.27;12.40;;;-0.80;1.00;;;;;;5113317;28;20204;-70
2022/03/08 07:18:55;;;;;;;22.23;11.93;;;-0.80;1.00;;;;;;5113736;28;20193;-70
2022/03/08 07:21:22;;;;;;;23.60;12.37;;;-0.70;1.00;;;;;;5113508;28;20261;-70
2022/03/08 07:23:49;;;;;;;29.13;13.63;;;-0.40;99.90;;;;;;5113508;28;20201;-70
2022/03/08 07:26:16;;;;;;;23.90;12.70;;;-0.20;99.90;;;;;;5112974;28;20250;-70
2022/03/08 07:28:43;;;;;;;27.43;12.03;;;0.10;99.90;;;;;;5114260;28;20197;-70
2022/03/08 07:31:12;;;;;;;24.57;13.27;;;0.30;1.00;;;;;;5112958;28;20269;-70
2022/03/08 07:33:40;;;;;;;22.27;12.67;;;0.40;99.90;;;;;;5113962;28;20205;-70
2022/03/08 07:36:08;;;;;;;23.43;12.93;;;0.70;22.60;;;;;;5113723;28;20228;-70
2022/03/08 07:38:35;;;;;;;25.13;13.70;;;1.00;1.00;;;;;;5096558;28;20205;-71
2022/03/08 07:41:02;;;;;;;22.27;12.77;;;1.70;99.90;;;;;;5093020;28;20197;-71
2022/03/08 07:43:29;;;;;;;25.73;13.80;;;2.20;1.00;;;;;;5093906;28;20263;-70
2022/03/08 07:45:56;;;;;;;24.87;12.27;;;3.40;1.00;;;;;;5093880;28;20202;-69
2022/03/08 07:48:25;;;;;;;21.70;12.57;;;5.10;99.90;;;;;;5092000;28;20197;-69
2022/03/08 07:50:52;;;;;;;17.80;11.70;;;5.90;1.00;;;;;;5090802;28;20205;-69
2022/03/08 07:53:19;;;;;;;20.80;12.40;;;7.10;99.90;;;;;;5093282;28;20210;-69
2022/03/08 07:55:46;;;;;;;17.90;11.53;;;7.40;1.00;;;;;;5092520;28;20234;-70
2022/03/08 07:58:14;;;;;;;20.37;12.17;;;4.80;1.00;;;;;;5093763;28;20246;-69
2022/03/08 08:00:42;;;;;;;20.87;12.30;;;4.50;99.90;;;;;;5092656;28;20217;-70
2022/03/08 08:03:09;;;;;;;19.03;12.07;;;4.20;1.00;;;;;;5093288;28;20248;-70
2022/03/08 08:05:39;;;;;;;20.70;12.80;;;4.80;1.00;;;;;;5092608;28;20209;-70
2022/03/08 08:08:07;;;;;;;18.53;12.47;;;4.50;1.00;;;;;;5092480;28;20205;-70
2022/03/08 08:10:34;;;;;;;20.17;12.97;;;4.30;1.00;;;;;;5093721;28;20229;-69
2022/03/08 08:13:02;;;;;;;19.43;11.90;;;4.40;99.90;;;;;;5092679;28;20227;-70
2022/03/08 08:15:29;;;;;;;21.83;13.67;;;4.20;99.90;;;;;;5092544;28;20226;-70
2022/03/08 08:17:56;;;;;;;18.77;11.17;;;4.30;99.90;;;;;;5091950;28;20202;-70
2022/03/08 08:20:23;;;;;;;21.70;11.90;;;4.20;1.00;;;;;;5092658;28;20606;-70
2022/03/08 08:22:51;;;;;;;20.13;11.70;;;4.70;1.00;;;;;;5092166;28;20205;-70
2022/03/08 08:25:18;;;;;;;20.40;11.37;;;4.80;99.90;;;;;;5092302;28;20274;-70
2022/03/08 08:27:45;;;;;;;18.90;11.20;;;4.60;99.90;;;;;;5092676;28;20252;-70
2022/03/08 08:30:12;;;;;;;20.10;13.07;;;4.70;1.00;;;;;;5091944;28;20194;-70
2022/03/08 08:32:40;;;;;;;19.20;11.30;;;4.70;1.00;;;;;;5091908;28;20201;-70
2022/03/08 08:35:08;;;;;;;21.93;12.37;;;5.10;99.90;;;;;;5093152;28;20248;-70
2022/03/08 08:37:35;;;;;;;24.03;12.50;;;4.90;1.00;;;;;;5092205;28;20205;-70
2022/03/08 08:40:05;;;;;;;20.93;12.10;;;5.20;1.00;;;;;;5091491;28;20243;-70
2022/03/08 08:42:32;;;;;;;19.60;11.80;;;5.50;1.00;;;;;;5092217;28;20246;-70
2022/03/08 08:44:59;;;;;;;17.87;11.00;;;5.30;1.00;;;;;;5093041;28;20240;-69
2022/03/08 08:47:26;;;;;;;20.23;11.27;;;4.50;99.90;;;;;;5092739;28;20279;-69
2022/03/08 08:49:53;;;;;;;22.13;12.50;;;4.50;99.90;;;;;;5092335;28;20545;-70
2022/03/08 08:52:20;;;;;;;25.63;13.67;;;4.10;1.00;;;;;;5092193;28;20258;-69
2022/03/08 08:54:48;;;;;;;24.40;14.10;;;3.90;1.00;;;;;;5091851;28;20206;-69
2022/03/08 08:57:16;;;;;;;23.03;13.83;;;3.90;1.00;;;;;;5092274;28;20257;-69
2022/03/08 08:59:43;;;;;;;27.43;14.33;;;3.90;1.00;;;;;;5091723;28;20243;-69
2022/03/08 09:02:11;;;;;;;23.10;13.20;;;4.00;1.00;;;;;;5091701;28;20202;-69
2022/03/08 09:04:38;;;;;;;26.40;13.60;;;4.20;1.00;;;;;;5091545;28;20243;-69
2022/03/08 09:07:05;;;;;;;25.50;13.70;;;4.30;1.00;;;;;;5092286;28;20240;-70
2022/03/08 09:09:33;;;;;;;21.23;12.60;;;4.50;1.00;;;;;;5113008;28;20213;-69
2022/03/08 09:12:00;;;;;;;19.50;12.50;;;4.80;77.10;;;;;;5111648;28;20197;-69
2022/03/08 09:14:28;;;;;;;20.93;12.80;;;4.90;42.10;;;;;;5112076;28;20659;-69
2022/03/08 09:16:55;;;;;;;27.43;12.97;;;5.20;99.90;;;;;;5111700;28;20224;-69
2022/03/08 09:19:23;;;;;;;21.40;13.03;;;5.30;1.00;;;;;;5113122;28;20200;-70
2022/03/08 09:21:50;;;;;;;18.03;10.27;;;5.50;1.00;;;;;;5111805;28;20205;-70
2022/03/08 09:24:17;;;;;;;21.90;13.13;;;5.80;1.00;;;;;;5112922;28;20321;-70
2022/03/08 09:26:44;;;;;;;20.90;13.13;;;5.80;1.00;;;;;;5111578;28;20720;-69
2022/03/08 09:29:11;;;;;;;20.37;11.63;;;5.70;1.00;;;;;;5111734;28;20189;-69
2022/03/08 09:31:39;;;;;;;21.67;13.07;;;5.90;1.00;;;;;;5110752;28;20719;-69
2022/03/08 09:34:07;;;;;;;21.63;11.93;;;5.90;99.90;;;;;;5112419;28;20205;-69
2022/03/08 09:36:34;;;;;;;22.33;12.40;;;6.10;99.90;;;;;;5111741;28;20220;-69
2022/03/08 09:39:01;;;;;;;20.13;12.47;;;6.20;99.90;;;;;;5112198;28;20305;-69
2022/03/08 09:41:28;;;;;;;17.57;10.20;;;6.30;99.90;;;;;;5111908;28;20201;-69
2022/03/08 09:43:55;;;;;;;16.43;9.03;;;6.60;1.00;;;;;;5112893;28;20200;-70
2022/03/08 09:46:22;;;;;;;17.27;8.87;;;6.70;1.00;;;;;;5110717;28;20201;-70
2022/03/08 09:48:52;;;;;;;14.27;8.73;;;6.80;1.00;;;;;;5111968;28;20205;-70
2022/03/08 09:51:20;;;;;;;11.20;7.67;;;7.00;1.00;;;;;;5112349;28;20242;-70
2022/03/08 09:53:52;;;;;;;12.77;7.10;;;7.20;99.90;;;;;;5110970;28;20262;-68
2022/03/08 09:56:19;;;;;;;10.10;5.90;;;7.20;99.90;;;;;;5110728;28;20329;-68
2022/03/08 09:58:46;;;;;;;8.93;5.63;;;7.30;1.00;;;;;;5111793;28;20684;-68
2022/03/08 10:01:13;;;;;;;11.83;5.43;;;7.60;1.00;;;;;;5110882;28;20612;-70
2022/03/08 10:03:43;;;;;;;11.33;6.67;;;7.50;99.90;;;;;;5111406;28;20197;-68
2022/03/08 10:06:12;;;;;;;10.77;6.10;;;7.60;1.00;;;;;;5111445;28;20636;-68
2022/03/08 10:08:39;;;;;;;9.93;5.53;;;7.40;99.90;;;;;;5111587;28;20212;-70
2022/03/08 10:11:09;;;;;;;9.50;5.47;;;7.60;56.30;;;;;;5111882;28;20201;-68
2022/03/08 10:13:41;;;;;;;7.37;4.43;;;7.80;1.00;;;;;;5103361;28;20201;-68
2022/03/08 10:16:15;;;;;;;8.57;4.80;;;7.50;1.00;;;;;;5098841;28;20304;-68
2022/03/08 10:18:45;;;;;;;9.57;5.53;;;7.70;99.90;;;;;;5111578;28;20204;-68
2022/03/08 10:21:31;;;;;;;9.97;5.40;;;7.80;1.00;;;;;;5111748;28;20215;-68
2022/03/08 10:24:00;;;;;;;8.70;5.50;;;7.70;1.00;;;;;;5111804;28;20734;-68
2022/03/08 10:26:27;;;;;;;9.87;6.00;;;7.90;1.00;;;;;;5108943;28;20283;-68
2022/03/08 10:28:57;;;;;;;9.10;5.63;;;7.90;1.00;;;;;;5081952;28;20713;-68
2022/03/08 10:31:25;;;;;;;9.33;5.00;;;7.70;1.00;;;;;;5090909;28;20243;-68
2022/03/08 10:33:53;;;;;;;8.40;4.83;;;7.90;1.00;;;;;;5070870;28;20248;-68
2022/03/08 10:36:22;;;;;;;9.53;5.40;;;7.80;1.00;;;;;;5070354;28;20275;-68
2022/03/08 10:39:12;;;;;;;7.43;4.43;;;8.20;1.00;;;;;;5089945;28;20237;-68
2022/03/08 10:41:53;;;;;;;7.50;4.13;;;8.30;1.00;;;;;;5091289;28;20259;-68
2022/03/08 10:44:32;;;;;;;4.97;3.60;;;8.30;1.00;;;;;;5091187;28;20271;-68
2022/03/08 10:47:05;;;;;;;5.17;3.40;;;8.30;99.90;;;;;;5089712;28;20204;-70
2022/03/08 10:49:33;;;;;;;4.20;3.20;;;8.40;99.90;;;;;;5090387;28;20234;-68
2022/03/08 10:52:02;;;;;;;5.10;3.60;;;8.50;99.90;;;;;;5090587;28;20209;-68
2022/03/08 10:54:31;;;;;;;4.73;2.77;;;8.60;99.90;;;;;;5091074;28;20259;-70
2022/03/08 10:56:59;;;;;;;3.80;2.63;;;8.50;37.70;;;;;;5091448;28;20247;-68
2022/03/08 10:59:26;;;;;;;5.93;3.30;;;8.60;1.00;;;;;;5090789;28;20271;-68
2022/03/08 11:01:53;;;;;;;3.67;2.50;;;8.80;1.00;;;;;;5089247;28;20234;-68
2022/03/08 11:04:22;;;;;;;3.47;2.10;;;8.80;1.00;;;;;;5090958;28;20212;-68
2022/03/08 11:06:52;;;;;;;4.17;2.83;;;8.60;1.00;;;;;;5088882;28;20202;-68
2022/03/08 11:09:20;;;;;;;4.73;2.30;;;9.10;1.00;;;;;;5091266;28;20259;-68
2022/03/08 11:11:49;;;;;;;2.57;2.10;;;8.90;1.00;;;;;;5090697;28;20201;-68
2022/03/08 11:14:16;;;;;;;2.10;1.87;;;9.20;1.00;;;;;;5090956;28;20319;-68
2022/03/08 11:16:50;;;;;;;3.63;1.93;;;9.30;1.00;;;;;;5090741;28;20295;-68
2022/03/08 11:19:18;;;;;;;6.90;4.10;;;9.10;1.00;;;;;;5091540;28;20217;-68
2022/03/08 11:21:46;;;;;;;6.37;4.00;;;9.50;1.00;;;;;;5090216;28;20198;-68
2022/03/08 11:24:15;;;;;;;3.93;1.90;;;9.30;1.00;;;;;;5091247;28;20205;-68
2022/03/08 11:26:44;;;;;;;3.43;1.60;;;9.30;1.00;;;;;;5094522;28;20201;-68
2022/03/08 11:29:12;;;;;;;6.67;3.87;;;9.30;1.00;;;;;;5094113;28;20194;-68
2022/03/08 11:31:41;;;;;;;2.00;1.57;;;9.60;1.00;;;;;;5093832;28;20636;-68
2022/03/08 11:34:18;;;;;;;4.90;2.70;;;9.30;1.00;;;;;;5094506;28;20254;-68
2022/03/08 11:36:56;;;;;;;4.90;2.77;;;9.60;1.00;;;;;;5093500;28;20760;-68
2022/03/08 11:39:25;;;;;;;3.87;2.00;;;9.50;1.00;;;;;;5093225;28;20197;-68
2022/03/08 11:41:53;;;;;;;2.50;1.77;;;9.20;1.00;;;;;;5093610;28;20198;-68
2022/03/08 11:44:27;;;;;;;2.57;1.50;;;9.40;1.00;;;;;;5094596;28;20201;-68
2022/03/08 11:47:02;;;;;;;3.00;2.70;;;9.60;1.00;;;;;;5094115;28;20209;-68
2022/03/08 11:49:40;;;;;;;3.53;1.73;;;9.50;1.00;;;;;;5092501;28;20194;-68
2022/03/08 11:52:12;;;;;;;1.80;1.43;;;9.50;1.00;;;;;;5092409;28;20239;-68
2022/03/08 11:54:39;;;;;;;2.17;1.57;;;9.50;1.00;;;;;;5094180;28;20201;-68
2022/03/08 11:57:06;;;;;;;2.43;1.80;;;9.50;1.00;;;;;;5094037;28;20229;-68
2022/03/08 11:59:34;;;;;;;2.93;2.10;;;9.60;1.00;;;;;;5093780;28;20198;-68
2022/03/08 12:02:03;;;;;;;3.20;1.73;;;9.70;1.00;;;;;;5093145;28;20271;-68
2022/03/08 12:04:44;;;;;;;1.87;1.40;;;9.50;1.00;;;;;;5094134;28;20201;-68
2022/03/08 12:07:26;;;;;;;1.27;1.17;;;9.50;1.00;;;;;;5092487;28;20567;-68
2022/03/08 12:10:34;;;;;;;2.57;1.70;;;10.00;1.00;;;;;;5094051;28;20209;-68
2022/03/08 12:13:01;;;;;;;2.73;1.80;;;10.10;1.00;;;;;;5056834;28;20212;-68
2022/03/08 12:15:30;;;;;;;1.77;1.50;;;9.80;1.00;;;;;;5092008;28;20655;-71
2022/03/08 12:18:18;;;;;;;2.40;1.70;;;9.60;1.00;;;;;;5098891;28;20244;-71
2022/03/08 12:21:06;;;;;;;4.23;1.60;;;9.70;1.00;;;;;;5114055;28;20255;-70
2022/03/08 12:23:48;;;;;;;2.13;1.70;;;9.50;1.00;;;;;;5112147;28;20212;-70
2022/03/08 12:26:25;;;;;;;2.10;1.90;;;9.70;1.00;;;;;;5104192;28;20258;-71
2022/03/08 12:29:09;;;;;;;2.43;2.23;;;9.50;1.00;;;;;;5091360;28;20203;-71
2022/03/08 12:32:09;;;;;;;3.50;2.83;;;9.90;1.00;;;;;;5090517;28;20206;-71
2022/03/08 12:34:39;;;;;;;2.87;1.93;;;10.10;1.00;;;;;;5091537;28;20569;-71
2022/03/08 12:37:08;;;;;;;3.50;2.40;;;9.90;1.00;;;;;;5091763;28;20227;-71
2022/03/08 12:39:46;;;;;;;1.97;1.73;;;10.00;1.00;;;;;;5092131;28;20286;-70
2022/03/08 12:42:33;;;;;;;4.03;2.23;;;10.00;1.00;;;;;;5093034;28;20210;-70
2022/03/08 12:45:04;;;;;;;3.47;2.50;;;9.90;1.00;;;;;;5092737;28;20593;-70
2022/03/08 12:47:33;;;;;;;4.03;2.63;;;10.00;1.00;;;;;;5092471;28;20214;-70